Time;durP1;ratioP1;P1;durP2;ratioP2;P2;SDS_P1;SDS_P2;PMS_P1;PMS_P2;Temp;Humidity;BMP_temperature;BMP_pressure;BME280_temperature;BME280_humidity;BME280_pressure;Samples;Min_cycle;Max_cycle;Signal;HPM_P1;HPM_P2
2023/01/26 00:01:28;;;;;;;;;;;;;;;7.32;100.00;102544.91;5112449;28;19926;-79
2023/01/26 00:03:55;;;;;;;;;;;;;;;7.23;100.00;102548.34;5114812;28;19927;-80
2023/01/26 00:06:22;;;;;;;;;;;;;;;7.37;100.00;102547.53;5114465;28;19927;-80
2023/01/26 00:08:50;;;;;;;;;;;;;;;7.35;100.00;102550.13;5107691;28;20332;-80
2023/01/26 00:11:19;;;;;;;;;;;;;;;7.33;100.00;102550.97;5109542;28;19926;-81
2023/01/26 00:13:48;;;;;;;;;;;;;;;7.42;100.00;102558.88;5113118;28;20325;-80
2023/01/26 00:16:14;;;;;;;;;;;;;;;7.48;100.00;102553.66;5114266;28;19927;-80
2023/01/26 00:18:42;;;;;;;;;;;;;;;7.29;100.00;102549.22;5099679;28;19920;-81
2023/01/26 00:21:16;;;;;;;;;;;;;;;7.26;100.00;102555.31;5113846;28;19920;-80
2023/01/26 00:23:42;;;;;;;;;;;;;;;7.50;100.00;102558.88;5113369;28;20357;-80
2023/01/26 00:26:12;;;;;;;;;;;;;;;7.49;100.00;102559.75;5113040;28;19920;-80
2023/01/26 00:28:39;;;;;;;;;;;;;;;7.31;100.00;102568.34;5102277;28;19920;-80
2023/01/26 00:31:07;;;;;;;;;;;;;;;7.37;100.00;102571.88;5114421;28;19927;-80
2023/01/26 00:33:34;;;;;;;;;;;;;;;7.27;100.00;102569.19;5114054;28;19920;-80
2023/01/26 00:36:00;;;;;;;;;;;;;;;7.37;100.00;102573.59;5113517;28;20270;-80
2023/01/26 00:38:27;;;;;;;;;;;;;;;7.36;100.00;102570.09;5102643;28;19946;-81
2023/01/26 00:40:53;;;;;;;;;;;;;;;7.40;100.00;102568.38;5112348;27;19934;-80
2023/01/26 00:43:20;;;;;;;;;;;;;;;7.25;100.00;102571.78;5112823;28;19919;-80
2023/01/26 00:45:47;;;;;;;;;;;;;;;7.32;100.00;102585.72;5112728;28;19920;-81
2023/01/26 00:48:14;;;;;;;;;;;;;;;7.34;100.00;102584.88;5105533;28;20470;-80
2023/01/26 00:50:41;;;;;;;;;;;;;;;7.34;100.00;102589.22;5108102;28;19924;-80
2023/01/26 00:53:07;;;;;;;;;;;;;;;7.28;100.00;102584.84;5114243;28;19920;-81
2023/01/26 00:55:34;;;;;;;;;;;;;;;7.48;100.00;102582.34;5111724;28;19927;-80
2023/01/26 00:58:02;;;;;;;;;;;;;;;7.54;100.00;102590.19;5107752;28;19927;-80
2023/01/26 01:00:29;;;;;;;;;;;;;;;7.44;100.00;102598.84;5112112;28;19926;-81
2023/01/26 01:02:56;;;;;;;;;;;;;;;7.52;100.00;102602.31;5112557;28;19926;-80
2023/01/26 01:05:24;;;;;;;;;;;;;;;7.53;100.00;102596.25;5113315;28;19927;-80
2023/01/26 01:07:50;;;;;;;;;;;;;;;7.70;100.00;102612.00;5111146;28;19927;-81
2023/01/26 01:10:17;;;;;;;;;;;;;;;7.49;100.00;102610.16;5111405;28;19920;-81
2023/01/26 01:12:44;;;;;;;;;;;;;;;7.39;100.00;102606.63;5113556;28;19920;-80
2023/01/26 01:15:10;;;;;;;;;;;;;;;7.56;100.00;102609.31;5111635;28;19969;-81
2023/01/26 01:17:37;;;;;;;;;;;;;;;7.52;100.00;102609.28;5111095;28;20438;-78
2023/01/26 01:20:05;;;;;;;;;;;;;;;7.62;100.00;102610.22;5113295;28;19920;-79
2023/01/26 01:22:32;;;;;;;;;;;;;;;7.57;100.00;102603.22;5113679;28;19926;-80
2023/01/26 01:24:58;;;;;;;;;;;;;;;7.35;100.00;102610.06;5112322;28;20272;-81
2023/01/26 01:27:25;;;;;;;;;;;;;;;7.34;100.00;102607.47;5111451;28;20361;-79
2023/01/26 01:29:52;;;;;;;;;;;;;;;7.37;100.00;102608.34;5111443;28;19927;-81
2023/01/26 01:32:19;;;;;;;;;;;;;;;7.21;100.00;102609.13;5099076;28;19951;-81
2023/01/26 01:34:46;;;;;;;;;;;;;;;7.38;100.00;102610.09;5113539;28;19919;-81
2023/01/26 01:37:13;;;;;;;;;;;;;;;7.51;100.00;102611.03;5111859;28;19926;-81
2023/01/26 01:39:40;;;;;;;;;;;;;;;7.48;100.00;102604.94;5100871;28;19926;-81
2023/01/26 01:42:06;;;;;;;;;;;;;;;7.47;100.00;102616.22;5111245;28;20364;-81
2023/01/26 01:44:34;;;;;;;;;;;;;;;7.48;100.00;102611.00;5111245;28;19928;-81
2023/01/26 01:47:00;;;;;;;;;;;;;;;7.36;100.00;102616.16;5111573;28;20268;-81
2023/01/26 01:49:35;;;;;;;;;;;;;;;7.45;100.00;102618.81;5097838;28;19926;-81
2023/01/26 01:52:08;;;;;;;;;;;;;;;7.53;100.00;102608.44;5113049;28;19969;-81
2023/01/26 01:54:40;;;;;;;;;;;;;;;7.44;100.00;102617.06;5099030;28;20371;-81
2023/01/26 01:57:14;;;;;;;;;;;;;;;7.32;100.00;102611.78;5112189;28;19920;-81
2023/01/26 01:59:43;;;;;;;;;;;;;;;7.35;100.00;102627.47;5111790;28;20960;-80
2023/01/26 02:02:10;;;;;;;;;;;;;;;7.39;100.00;102630.06;5111211;28;19941;-82
2023/01/26 02:04:37;;;;;;;;;;;;;;;7.15;100.00;102638.63;5111153;28;19945;-81
2023/01/26 02:07:04;;;;;;;;;;;;;;;7.23;100.00;102643.88;5112081;28;19920;-81
2023/01/26 02:12:21;;;;;;;;;;;;;;;7.29;100.00;102650.84;5117276;28;19928;-81
2023/01/26 02:14:49;;;;;;;;;;;;;;;7.34;100.00;102651.75;5100887;28;19927;-80
2023/01/26 02:17:15;;;;;;;;;;;;;;;7.28;100.00;102663.03;5104793;28;19920;-80
2023/01/26 02:19:45;;;;;;;;;;;;;;;7.25;100.00;102668.19;5107397;28;19923;-81
2023/01/26 02:22:17;;;;;;;;;;;;;;;7.29;100.00;102658.66;5105424;28;20002;-81
2023/01/26 02:24:44;;;;;;;;;;;;;;;7.28;100.00;102669.94;5110544;28;20322;-81
2023/01/26 02:27:11;;;;;;;;;;;;;;;7.16;100.00;102674.22;5116506;28;20319;-81
2023/01/26 02:29:37;;;;;;;;;;;;;;;7.13;100.00;102684.59;5106935;28;20004;-81
2023/01/26 02:32:04;;;;;;;;;;;;;;;7.21;100.00;102684.69;5111086;28;20284;-81
2023/01/26 02:34:30;;;;;;;;;;;;;;;7.22;100.00;102689.00;5115598;28;20267;-82
2023/01/26 02:36:58;;;;;;;;;;;;;;;7.27;100.00;102689.91;5117226;28;19927;-80
2023/01/26 02:39:40;;;;;;;;;;;;;;;7.23;100.00;102676.00;5104741;28;19924;-81
2023/01/26 02:44:52;;;;;;;;;;;;;;;7.09;100.00;102682.84;5116710;28;19919;-81
2023/01/26 02:47:18;;;;;;;;;;;;;;;7.11;100.00;102693.28;5115893;28;19924;-81
2023/01/26 02:49:49;;;;;;;;;;;;;;;6.94;100.00;102687.91;5103714;28;19924;-81
2023/01/26 02:52:17;;;;;;;;;;;;;;;7.05;100.00;102686.28;5111719;28;19927;-81
2023/01/26 02:57:37;;;;;;;;;;;;;;;7.11;100.00;102680.25;5096451;28;20361;-81
2023/01/26 03:00:05;;;;;;;;;;;;;;;7.04;100.00;102684.53;5115993;28;19927;-81
2023/01/26 03:02:31;;;;;;;;;;;;;;;7.07;100.00;102687.16;5114476;28;19924;-81
2023/01/26 03:04:58;;;;;;;;;;;;;;;6.96;100.00;102681.88;5094785;28;20311;-81
2023/01/26 03:07:24;;;;;;;;;;;;;;;6.99;100.00;102692.31;5107913;28;19920;-82
2023/01/26 03:09:52;;;;;;;;;;;;;;;6.98;100.00;102694.91;5112966;28;19926;-80
2023/01/26 03:12:18;;;;;;;;;;;;;;;6.95;100.00;102698.34;5106054;28;19920;-81
2023/01/26 03:14:45;;;;;;;;;;;;;;;6.78;100.00;102702.53;5116018;28;19931;-81
2023/01/26 03:17:11;;;;;;;;;;;;;;;6.89;100.00;102689.59;5115733;28;19968;-81
2023/01/26 03:27:53;;;;;;;;;;;;;;;6.79;100.00;102702.53;5105786;28;19930;-82
2023/01/26 03:30:20;;;;;;;;;;;;;;;6.63;100.00;102703.25;5114148;28;19996;-81
2023/01/26 03:32:46;;;;;;;;;;;;;;;6.61;100.00;102698.03;5114449;28;19924;-82
2023/01/26 03:35:21;;;;;;;;;;;;;;;6.67;100.00;102698.94;5115082;28;19927;-82
2023/01/26 03:37:53;;;;;;;;;;;;;;;6.70;100.00;102702.47;5113411;28;19959;-82
2023/01/26 03:56:53;;;;;;;;;;;;;;;6.81;100.00;102713.84;5112827;28;20473;-82
2023/01/26 03:59:36;;;;;;;;;;;;;;;6.69;100.00;102718.91;5107339;28;19934;-82
2023/01/26 04:10:22;;;;;;;;;;;;;;;6.72;100.00;102724.16;5108441;28;20335;-82
2023/01/26 04:23:57;;;;;;;;;;;;;;;6.81;100.00;102739.00;5115154;27;19920;-82
2023/01/26 04:26:25;;;;;;;;;;;;;;;7.03;100.00;102725.34;5113612;28;19960;-82
2023/01/26 04:28:51;;;;;;;;;;;;;;;7.02;100.00;102731.41;5112335;28;19920;-82
2023/01/26 04:31:18;;;;;;;;;;;;;;;6.87;100.00;102738.19;5104217;28;19924;-82
2023/01/26 04:33:45;;;;;;;;;;;;;;;6.80;100.00;102740.75;5099236;28;19919;-81
2023/01/26 04:36:11;;;;;;;;;;;;;;;6.72;100.00;102738.91;5112755;28;19927;-82
2023/01/26 04:38:38;;;;;;;;;;;;;;;6.77;100.00;102740.72;5104422;28;19920;-81
2023/01/26 04:41:05;;;;;;;;;;;;;;;6.64;100.00;102742.31;5111512;28;19923;-81
2023/01/26 04:43:32;;;;;;;;;;;;;;;6.61;100.00;102746.63;5098344;28;19924;-81
2023/01/26 04:46:03;;;;;;;;;;;;;;;6.60;100.00;102745.72;5100969;28;19919;-82
2023/01/26 04:48:29;;;;;;;;;;;;;;;6.60;100.00;102758.75;5100279;28;20281;-81
2023/01/26 04:50:57;;;;;;;;;;;;;;;6.66;100.00;102757.97;5112086;28;19919;-82
2023/01/26 04:53:24;;;;;;;;;;;;;;;6.77;100.00;102756.34;5113107;28;19920;-81
2023/01/26 04:55:51;;;;;;;;;;;;;;;6.82;100.00;102764.22;5109304;28;20284;-81
2023/01/26 04:58:17;;;;;;;;;;;;;;;6.70;100.00;102775.34;5101672;28;19920;-82
2023/01/26 05:00:49;;;;;;;;;;;;;;;6.79;100.00;102775.44;5096669;28;19927;-82
2023/01/26 05:03:15;;;;;;;;;;;;;;;6.72;100.00;102770.16;5092986;28;20258;-82
2023/01/26 05:05:42;;;;;;;;;;;;;;;6.80;100.00;102772.00;5111446;28;20284;-82
2023/01/26 05:08:08;;;;;;;;;;;;;;;6.97;100.00;102772.16;5092444;28;19920;-82
2023/01/26 05:10:35;;;;;;;;;;;;;;;6.93;100.00;102770.38;5100960;28;19927;-82
2023/01/26 05:13:01;;;;;;;;;;;;;;;6.98;100.00;102768.69;5113173;28;20310;-82
2023/01/26 05:15:28;;;;;;;;;;;;;;;7.08;100.00;102759.22;5113766;28;19927;-82
2023/01/26 05:17:56;;;;;;;;;;;;;;;7.08;100.00;102766.19;5110258;28;19927;-82
2023/01/26 05:20:23;;;;;;;;;;;;;;;6.92;100.00;102762.56;5112741;28;19919;-82
2023/01/26 05:22:49;;;;;;;;;;;;;;;7.00;100.00;102759.16;5113736;28;19969;-82
2023/01/26 05:25:16;;;;;;;;;;;;;;;6.88;100.00;102760.78;5110096;28;20357;-82
2023/01/26 05:27:43;;;;;;;;;;;;;;;6.98;100.00;102757.41;5112098;28;20357;-82
2023/01/26 05:30:10;;;;;;;;;;;;;;;6.97;100.00;102755.66;5112714;28;19969;-81
2023/01/26 05:32:39;;;;;;;;;;;;;;;6.91;100.00;102753.88;5112421;28;19927;-82
2023/01/26 05:35:06;;;;;;;;;;;;;;;6.93;100.00;102752.16;5099633;28;19920;-82
2023/01/26 05:37:33;;;;;;;;;;;;;;;6.99;100.00;102752.22;5110049;28;19923;-82
2023/01/26 05:40:00;;;;;;;;;;;;;;;6.86;100.00;102757.28;5100851;28;19988;-81
2023/01/26 05:42:26;;;;;;;;;;;;;;;7.00;100.00;102751.34;5106332;28;20010;-81
2023/01/26 05:44:53;;;;;;;;;;;;;;;7.06;100.00;102745.31;5108903;28;19964;-82
2023/01/26 05:47:20;;;;;;;;;;;;;;;6.99;100.00;102749.63;5109234;28;19926;-81
2023/01/26 05:49:46;;;;;;;;;;;;;;;6.84;100.00;102747.72;5103326;28;19924;-80
2023/01/26 05:52:14;;;;;;;;;;;;;;;6.83;100.00;102739.91;5105594;28;20357;-81
2023/01/26 05:54:41;;;;;;;;;;;;;;;6.84;100.00;102744.25;5101862;28;19920;-81
2023/01/26 05:57:08;;;;;;;;;;;;;;;6.71;100.00;102743.28;5111359;28;19927;-80
2023/01/26 05:59:35;;;;;;;;;;;;;;;6.87;100.00;102753.81;5104344;28;19931;-81
2023/01/26 06:02:01;;;;;;;;;;;;;;;6.69;100.00;102760.56;5100179;28;19920;-80
2023/01/26 06:04:28;;;;;;;;;;;;;;;6.70;100.00;102766.69;5105937;28;19969;-81
2023/01/26 06:06:55;;;;;;;;;;;;;;;6.86;100.00;102759.91;5110503;28;20373;-81
2023/01/26 06:09:22;;;;;;;;;;;;;;;6.82;100.00;102759.88;5098779;28;19920;-81
2023/01/26 06:11:55;;;;;;;;;;;;;;;6.75;100.00;102759.78;5105848;28;20041;-82
2023/01/26 06:14:22;;;;;;;;;;;;;;;6.90;100.00;102762.53;5105827;28;19975;-81
2023/01/26 06:16:48;;;;;;;;;;;;;;;6.62;100.00;102764.88;5107305;28;19946;-81
2023/01/26 06:19:15;;;;;;;;;;;;;;;6.52;100.00;102755.19;5108951;28;20621;-81
2023/01/26 06:21:41;;;;;;;;;;;;;;;6.54;100.00;102766.50;5102012;28;19943;-82
2023/01/26 06:24:08;;;;;;;;;;;;;;;6.73;100.00;102762.38;5104141;28;19924;-81
2023/01/26 06:26:35;;;;;;;;;;;;;;;6.57;100.00;102761.34;5106255;28;19920;-83
2023/01/26 06:29:02;;;;;;;;;;;;;;;6.49;100.00;102759.50;5104975;28;19920;-81
2023/01/26 06:31:28;;;;;;;;;;;;;;;6.43;100.00;102765.50;5108825;28;20276;-82
2023/01/26 06:33:55;;;;;;;;;;;;;;;6.62;100.00;102757.06;5109490;28;19920;-82
2023/01/26 06:36:22;;;;;;;;;;;;;;;6.63;100.00;102753.56;5108676;28;19920;-83
2023/01/26 06:38:49;;;;;;;;;;;;;;;6.48;100.00;102743.00;5108661;28;19927;-83
2023/01/26 06:41:16;;;;;;;;;;;;;;;6.44;100.00;102744.69;5107730;28;19930;-81
2023/01/26 06:43:44;;;;;;;;;;;;;;;6.49;100.00;102752.53;5103317;28;20356;-83
2023/01/26 06:46:11;;;;;;;;;;;;;;;6.25;100.00;102756.63;5105857;28;20311;-83
2023/01/26 06:48:38;;;;;;;;;;;;;;;6.40;100.00;102755.03;5106589;28;20002;-82
2023/01/26 06:51:14;;;;;;;;;;;;;;;6.40;100.00;102757.66;5108567;28;19919;-83
2023/01/26 06:54:01;;;;;;;;;;;;;;;6.23;100.00;102762.63;5109269;28;19920;-81
2023/01/26 06:56:28;;;;;;;;;;;;;;;6.15;100.00;102762.53;5103128;28;19923;-81
2023/01/26 06:58:54;;;;;;;;;;;;;;;6.14;100.00;102758.19;5101837;28;19965;-81
2023/01/26 07:01:23;;;;;;;;;;;;;;;6.27;100.00;102759.25;5103832;28;19927;-82
2023/01/26 07:03:51;;;;;;;;;;;;;;;5.99;100.00;102766.66;5098666;28;19920;-80
2023/01/26 07:06:18;;;;;;;;;;;;;;;6.04;100.00;102766.72;5110639;28;19920;-81
2023/01/26 07:08:45;;;;;;;;;;;;;;;6.16;100.00;102772.09;5105451;28;20003;-82
2023/01/26 07:11:12;;;;;;;;;;;;;;;5.89;100.00;102773.41;5106279;28;19920;-81
2023/01/26 07:13:39;;;;;;;;;;;;;;;5.89;100.00;102767.34;5110228;28;20432;-82
2023/01/26 07:16:07;;;;;;;;;;;;;;;5.84;100.00;102769.00;5112806;28;20337;-82
2023/01/26 07:18:33;;;;;;;;;;;;;;;5.96;100.00;102770.94;5114474;28;20364;-82
2023/01/26 07:21:08;;;;;;;;;;;;;;;5.90;100.00;102774.31;5108936;28;19923;-83
2023/01/26 07:23:35;;;;;;;;;;;;;;;5.75;100.00;102772.34;5107102;28;19920;-82
2023/01/26 07:26:02;;;;;;;;;;;;;;;5.71;100.00;102775.75;5108657;28;19924;-81
2023/01/26 07:28:29;;;;;;;;;;;;;;;5.72;100.00;102785.31;5107683;28;19923;-82
2023/01/26 07:30:57;;;;;;;;;;;;;;;5.75;100.00;102787.06;5109521;28;19930;-81
2023/01/26 07:33:23;;;;;;;;;;;;;;;5.66;100.00;102778.25;5114664;28;19920;-81
2023/01/26 07:35:54;;;;;;;;;;;;;;;5.78;100.00;102784.53;5114270;28;19924;-81
2023/01/26 07:38:20;;;;;;;;;;;;;;;5.82;100.00;102788.91;5099673;28;20387;-82
2023/01/26 07:40:47;;;;;;;;;;;;;;;5.76;100.00;102794.88;5094172;28;20498;-81
2023/01/26 07:43:14;;;;;;;;;;;;;;;5.70;100.00;102785.28;5106680;28;19924;-82
2023/01/26 07:45:50;;;;;;;;;;;;;;;5.66;100.00;102798.19;5113540;28;19988;-82
2023/01/26 07:48:17;;;;;;;;;;;;;;;5.66;100.00;102793.00;5114807;28;19926;-82
2023/01/26 07:50:44;;;;;;;;;;;;;;;5.67;100.00;102789.56;5108507;28;19920;-80
2023/01/26 07:53:14;;;;;;;;;;;;;;;5.64;100.00;102786.91;5105685;28;19931;-82
2023/01/26 07:55:42;;;;;;;;;;;;;;;5.64;100.00;102795.56;5115087;28;19927;-82
2023/01/26 07:58:09;;;;;;;;;;;;;;;5.58;100.00;102795.47;5114472;28;19924;-82
2023/01/26 08:00:36;;;;;;;;;;;;;;;5.56;100.00;102788.50;5104587;28;20376;-82
2023/01/26 08:03:02;;;;;;;;;;;;;;;5.55;100.00;102790.22;5114209;28;19927;-82
2023/01/26 08:05:30;;;;;;;;;;;;;;;5.59;100.00;102779.03;5113666;28;19927;-82
2023/01/26 08:07:58;;;;;;;;;;;;;;;5.48;100.00;102793.56;5114398;28;19942;-83
2023/01/26 08:10:25;;;;;;;;;;;;;;;5.56;100.00;102780.69;5111048;28;19919;-82
2023/01/26 08:12:52;;;;;;;;;;;;;;;5.55;100.00;102786.75;5113012;28;19926;-83
2023/01/26 08:15:19;;;;;;;;;;;;;;;5.58;100.00;102790.28;5115129;28;19930;-83
2023/01/26 08:17:45;;;;;;;;;;;;;;;5.41;100.00;102792.59;5105779;28;20312;-82
2023/01/26 08:20:12;;;;;;;;;;;;;;;5.49;100.00;102797.94;5105859;28;19939;-83
2023/01/26 08:22:39;;;;;;;;;;;;;;;5.51;100.00;102796.22;5110100;28;19927;-82
2023/01/26 08:25:06;;;;;;;;;;;;;;;5.58;100.00;102797.19;5102952;28;20292;-83
2023/01/26 08:27:33;;;;;;;;;;;;;;;5.69;100.00;102800.84;5099944;28;19939;-83
2023/01/26 08:29:59;;;;;;;;;;;;;;;5.63;100.00;102787.75;5109788;28;19965;-83
2023/01/26 08:32:27;;;;;;;;;;;;;;;5.66;100.00;102788.66;5114105;28;20350;-82
2023/01/26 08:34:54;;;;;;;;;;;;;;;5.68;100.00;102788.69;5113693;28;20292;-82
2023/01/26 08:37:21;;;;;;;;;;;;;;;5.77;100.00;102787.97;5098275;28;20411;-83
2023/01/26 08:39:47;;;;;;;;;;;;;;;5.68;100.00;102789.59;5106919;28;20388;-83
2023/01/26 08:42:14;;;;;;;;;;;;;;;5.64;100.00;102795.56;5113171;28;20369;-83
2023/01/26 08:44:40;;;;;;;;;;;;;;;5.67;100.00;102789.56;5113360;28;19924;-82
2023/01/26 08:47:07;;;;;;;;;;;;;;;5.81;100.00;102795.84;5102516;28;19923;-83
2023/01/26 08:49:34;;;;;;;;;;;;;;;5.78;100.00;102805.31;5102271;28;21008;-82
2023/01/26 08:52:00;;;;;;;;;;;;;;;5.99;100.00;102800.47;5113150;28;19992;-83
2023/01/26 08:54:27;;;;;;;;;;;;;;;6.12;100.00;102808.44;5113177;28;19920;-83
2023/01/26 08:56:54;;;;;;;;;;;;;;;5.80;100.00;102808.81;5109294;28;19920;-83
2023/01/26 08:59:21;;;;;;;;;;;;;;;5.90;100.00;102813.31;5099355;28;20330;-83
2023/01/26 09:01:47;;;;;;;;;;;;;;;5.89;100.00;102817.59;5104657;28;19924;-83
2023/01/26 09:04:16;;;;;;;;;;;;;;;5.98;100.00;102821.25;5096498;28;19933;-83
2023/01/26 09:06:43;;;;;;;;;;;;;;;6.34;100.00;102823.50;5104752;28;19920;-83
2023/01/26 09:09:12;;;;;;;;;;;;;;;6.65;100.00;102816.94;5095363;28;19920;-82
2023/01/26 09:11:40;;;;;;;;;;;;;;;6.50;100.00;102813.28;5113652;28;19926;-83
2023/01/26 09:14:06;;;;;;;;;;;;;;;6.17;100.00;102823.25;5110646;28;19920;-82
2023/01/26 09:16:33;;;;;;;;;;;;;;;6.13;100.00;102826.69;5107996;28;20293;-83
2023/01/26 09:19:00;;;;;;;;;;;;;;;6.13;100.00;102824.06;5110475;28;19919;-83
2023/01/26 09:21:26;;;;;;;;;;;;;;;6.14;100.00;102835.34;5099818;28;19925;-83
2023/01/26 09:23:54;;;;;;;;;;;;;;;5.92;100.00;102836.72;5112523;28;19927;-83
2023/01/26 09:26:21;;;;;;;;;;;;;;;5.88;100.00;102834.06;5099900;28;19976;-83
2023/01/26 09:28:51;;;;;;;;;;;;;;;5.86;100.00;102829.69;5110750;28;19920;-82
2023/01/26 09:31:18;;;;;;;;;;;;;;;5.88;100.00;102825.41;5112719;28;19934;-82
2023/01/26 09:33:45;;;;;;;;;;;;;;;5.69;100.00;102832.03;5112377;28;19971;-83
2023/01/26 09:36:11;;;;;;;;;;;;;;;5.73;100.00;102833.81;5112263;28;19927;-82
2023/01/26 09:38:39;;;;;;;;;;;;;;;5.82;100.00;102846.97;5107140;28;19926;-83
2023/01/26 09:41:20;;;;;;;;;;;;;;;5.58;100.00;102843.97;5113336;28;19920;-82
2023/01/26 09:43:52;;;;;;;;;;;;;;;5.88;100.00;102843.63;5111323;28;19920;-82
2023/01/26 09:46:30;;;;;;;;;;;;;;;5.79;100.00;102844.34;5105342;28;19919;-83
2023/01/26 09:49:16;;;;;;;;;;;;;;;5.69;100.00;102856.28;5109439;28;20323;-82
2023/01/26 09:51:46;;;;;;;;;;;;;;;5.79;100.00;102864.22;5112443;28;19919;-83
2023/01/26 09:54:31;;;;;;;;;;;;;;;5.96;100.00;102865.41;5112861;28;20344;-83
2023/01/26 09:56:59;;;;;;;;;;;;;;;5.96;100.00;102854.16;5113141;28;19919;-83
2023/01/26 09:59:33;;;;;;;;;;;;;;;6.13;100.00;102864.81;5111810;28;19919;-83
2023/01/26 10:02:00;;;;;;;;;;;;;;;5.93;100.00;102861.88;5112122;28;19926;-83
2023/01/26 10:04:32;;;;;;;;;;;;;;;6.07;100.00;102858.69;5107454;28;20354;-83
2023/01/26 10:07:00;;;;;;;;;;;;;;;6.06;100.00;102856.91;5101140;28;19919;-83
2023/01/26 10:09:32;;;;;;;;;;;;;;;6.05;100.00;102857.75;5104900;28;19926;-83
2023/01/26 10:12:05;;;;;;;;;;;;;;;6.20;100.00;102870.13;5103962;28;19919;-83
2023/01/26 10:14:32;;;;;;;;;;;;;;;6.15;100.00;102869.19;5123508;27;20334;-83
2023/01/26 10:16:59;;;;;;;;;;;;;;;6.27;100.00;102866.75;5102273;28;19970;-83
2023/01/26 10:19:40;;;;;;;;;;;;;;;6.04;100.00;102881.16;5111102;28;19936;-82
2023/01/26 10:22:12;;;;;;;;;;;;;;;6.19;100.00;102883.97;5103440;28;20356;-82
2023/01/26 10:24:39;;;;;;;;;;;;;;;6.12;100.00;102883.88;5113080;28;20276;-83
2023/01/26 10:27:10;;;;;;;;;;;;;;;6.12;100.00;102892.53;5112903;28;19919;-82
2023/01/26 10:29:36;;;;;;;;;;;;;;;6.03;100.00;102897.59;5105524;28;20360;-82
2023/01/26 10:32:03;;;;;;;;;;;;;;;5.98;100.00;102894.06;5112165;28;19919;-83
2023/01/26 10:34:31;;;;;;;;;;;;;;;6.06;100.00;102892.47;5114685;28;19927;-82
2023/01/26 10:37:01;;;;;;;;;;;;;;;6.16;100.00;102891.75;5115838;28;20380;-82
2023/01/26 10:39:28;;;;;;;;;;;;;;;6.00;100.00;102895.84;5115350;28;19920;-81
2023/01/26 10:41:56;;;;;;;;;;;;;;;6.13;100.00;102903.84;5113326;28;19934;-82
2023/01/26 10:44:23;;;;;;;;;;;;;;;6.19;100.00;102916.94;5116553;28;19973;-82
2023/01/26 10:47:01;;;;;;;;;;;;;;;6.16;100.00;102912.56;5116219;28;19968;-82
2023/01/26 10:49:28;;;;;;;;;;;;;;;6.08;100.00;102911.56;5112896;28;19923;-83
2023/01/26 10:52:05;;;;;;;;;;;;;;;6.12;100.00;102912.47;5114957;28;19920;-82
2023/01/26 10:54:35;;;;;;;;;;;;;;;6.25;100.00;102914.41;5101718;28;19926;-83
2023/01/26 10:57:06;;;;;;;;;;;;;;;6.15;100.00;102917.75;5114732;28;20335;-83
2023/01/26 10:59:46;;;;;;;;;;;;;;;6.26;100.00;102916.16;5113053;28;19930;-83
2023/01/26 11:02:13;;;;;;;;;;;;;;;6.22;100.00;102910.03;5115864;28;19919;-84
2023/01/26 11:04:40;;;;;;;;;;;;;;;5.94;100.00;102921.69;5114808;28;20312;-83
2023/01/26 11:07:22;;;;;;;;;;;;;;;6.29;100.00;102915.34;5116596;28;19919;-82
2023/01/26 11:09:50;;;;;;;;;;;;;;;6.25;100.00;102914.41;5096297;28;20354;-82
2023/01/26 11:12:19;;;;;;;;;;;;;;;6.21;100.00;102936.91;5107938;28;19926;-83
2023/01/26 11:15:18;;;;;;;;;;;;;;;6.08;100.00;102928.03;5116471;28;19920;-83
2023/01/26 11:17:48;;;;;;;;;;;;;;;6.35;100.00;102924.09;5086134;28;20529;-83
2023/01/26 11:20:33;;;;;;;;;;;;;;;6.54;100.00;102925.25;5114982;28;19926;-83
2023/01/26 11:23:08;;;;;;;;;;;;;;;6.63;100.00;102919.31;5114627;28;20361;-83
2023/01/26 11:25:35;;;;;;;;;;;;;;;6.47;100.00;102924.28;5107791;28;19920;-83
2023/01/26 11:28:05;;;;;;;;;;;;;;;6.53;100.00;102922.63;5107982;28;20561;-83
2023/01/26 11:30:36;;;;;;;;;;;;;;;6.34;100.00;102918.88;5116098;28;19920;-82
2023/01/26 11:33:05;;;;;;;;;;;;;;;6.29;100.00;102920.56;5108641;27;20288;-83
2023/01/26 11:35:47;;;;;;;;;;;;;;;6.32;100.00;102910.19;5115268;28;19924;-83
2023/01/26 11:38:32;;;;;;;;;;;;;;;6.60;100.00;102911.44;5108315;28;19972;-83
2023/01/26 11:41:06;;;;;;;;;;;;;;;6.65;100.00;102915.84;5102209;28;19989;-83
2023/01/26 11:43:32;;;;;;;;;;;;;;;6.30;100.00;102906.69;5100677;28;19928;-83
2023/01/26 11:46:15;;;;;;;;;;;;;;;6.54;100.00;102911.38;5115195;28;19920;-83
2023/01/26 11:48:51;;;;;;;;;;;;;;;6.59;100.00;102910.59;5102072;28;19927;-83
2023/01/26 11:51:21;;;;;;;;;;;;;;;6.66;100.00;102906.34;5103543;28;20360;-83
2023/01/26 11:54:11;;;;;;;;;;;;;;;6.92;100.00;102913.59;5100582;28;19924;-83
2023/01/26 11:56:47;;;;;;;;;;;;;;;6.82;100.00;102908.28;5114117;28;19919;-83
2023/01/26 11:59:18;;;;;;;;;;;;;;;6.97;100.00;102902.38;5100646;28;19924;-83
2023/01/26 12:01:51;;;;;;;;;;;;;;;7.03;100.00;102902.47;5114530;28;19919;-83
2023/01/26 12:04:19;;;;;;;;;;;;;;;6.71;100.00;102895.97;5114749;28;20413;-83
2023/01/26 12:06:54;;;;;;;;;;;;;;;6.88;100.00;102911.81;5104465;28;19927;-83
2023/01/26 12:09:21;;;;;;;;;;;;;;;6.80;100.00;102911.75;5110846;28;19938;-83
2023/01/26 12:11:48;;;;;;;;;;;;;;;6.92;100.00;102906.66;5106319;28;19920;-83
2023/01/26 12:14:25;;;;;;;;;;;;;;;7.00;100.00;102918.06;5110536;28;19919;-82
2023/01/26 12:17:12;;;;;;;;;;;;;;;6.98;100.00;102916.28;5114059;28;19927;-83
2023/01/26 12:19:44;;;;;;;;;;;;;;;6.90;100.00;102920.53;5114699;28;19920;-82
2023/01/26 12:22:17;;;;;;;;;;;;;;;7.00;100.00;102906.78;5114561;28;19930;-83
2023/01/26 12:24:50;;;;;;;;;;;;;;;7.16;100.00;102913.91;5110398;28;19923;-84
2023/01/26 12:27:46;;;;;;;;;;;;;;;7.13;100.00;102911.25;5099238;28;20285;-83
2023/01/26 12:30:45;;;;;;;;;;;;;;;7.04;100.00;102912.00;5111294;28;19923;-83
2023/01/26 12:33:12;;;;;;;;;;;;;;;6.99;100.00;102911.13;5092440;28;19927;-83
2023/01/26 12:35:48;;;;;;;;;;;;;;;6.98;100.00;102914.56;5115191;28;19920;-82
2023/01/26 12:38:22;;;;;;;;;;;;;;;6.93;100.00;102923.19;5114685;28;20369;-84
2023/01/26 12:40:48;;;;;;;;;;;;;;;6.84;100.00;102924.78;5099422;28;20357;-83
2023/01/26 12:43:32;;;;;;;;;;;;;;;7.05;100.00;102923.31;5115051;28;19921;-82
2023/01/26 12:45:59;;;;;;;;;;;;;;;7.07;100.00;102913.81;5114068;28;19920;-83
2023/01/26 12:48:39;;;;;;;;;;;;;;;7.29;100.00;102904.47;5112693;28;19973;-83
2023/01/26 12:51:10;;;;;;;;;;;;;;;7.30;100.00;102903.63;5111425;28;19934;-83
2023/01/26 12:53:43;;;;;;;;;;;;;;;7.44;100.00;102901.19;5114869;28;19920;-83
2023/01/26 12:56:18;;;;;;;;;;;;;;;7.19;100.00;102900.91;5100976;28;19923;-83
2023/01/26 12:58:46;;;;;;;;;;;;;;;7.06;100.00;102906.81;5112779;28;19920;-83
2023/01/26 13:01:15;;;;;;;;;;;;;;;6.94;100.00;102901.47;5110799;28;19923;-85
2023/01/26 13:03:50;;;;;;;;;;;;;;;7.27;100.00;102905.34;5114520;28;19972;-84
2023/01/26 13:06:19;;;;;;;;;;;;;;;7.14;100.00;102906.94;5100311;28;19926;-84
2023/01/26 13:08:52;;;;;;;;;;;;;;;6.97;100.00;102904.13;5102783;28;19919;-84
2023/01/26 13:11:37;;;;;;;;;;;;;;;6.97;100.00;102901.50;5113890;28;20006;-84
2023/01/26 13:14:23;;;;;;;;;;;;;;;7.14;100.00;102907.81;5115132;28;19919;-84
2023/01/26 13:16:50;;;;;;;;;;;;;;;7.19;100.00;102905.25;5115776;28;19926;-84
2023/01/26 13:19:35;;;;;;;;;;;;;;;7.17;100.00;102907.84;5113840;28;19938;-85
2023/01/26 13:22:02;;;;;;;;;;;;;;;7.25;100.00;102910.53;5115321;28;19920;-84
2023/01/26 13:24:29;;;;;;;;;;;;;;;7.08;100.00;102907.72;5104806;28;19927;-85
2023/01/26 13:26:56;;;;;;;;;;;;;;;7.25;100.00;102905.31;5109792;28;19924;-84
2023/01/26 13:29:23;;;;;;;;;;;;;;;7.20;100.00;102897.44;5104546;28;19920;-84
2023/01/26 13:31:50;;;;;;;;;;;;;;;7.36;100.00;102901.06;5114443;28;19920;-84
2023/01/26 13:34:24;;;;;;;;;;;;;;;7.32;100.00;102907.13;5113975;28;20452;-84
2023/01/26 13:36:54;;;;;;;;;;;;;;;7.30;100.00;102910.59;5114808;28;19923;-84
2023/01/26 13:39:28;;;;;;;;;;;;;;;7.38;100.00;102906.31;5102424;28;19919;-84